首页
METAR-TAF:

METAR-TAF

机场 :

Cerklje ob Krki, 斯洛文尼亚

纬度: 45-53-59N, 经度: 15-30-55E, 海拔: 157米

当前天气观测

该预报发布于39分钟前的09:00 UTC
风速1节,风向东转东南
温度 20°C
湿度 73%
气压 1023 hPa
能见度10公里或以上
1500米以下无云,无积雨云

METAR: LJCE 220900Z 12001KT CAVOK 20/15 Q1023 RMK BLU

时间: 11:39 (09:39 UTC)

预报

该预报发布于1小时和39分钟前的08:00 UTC
预报有效从22日的 09点(UTC)到 22日的 18点(UTC)
风速4节,风向
能见度10公里或以上
1500米以下无云,无积雨云

TAF: LJCE 220800Z 2209/2218 09004KT CAVOK

超过4000个机场的气象观测和天气预报(METAR&TAF报告)。

可查询的气象台以黄色和红色小点在地图上表示。

将鼠标移到小点上方,可查看气象台名称。

然后点击查看天气观测和预报。

如需切换地图:点击带黑十字的绿色按钮放大地图;点击带横线的绿色按钮缩小地图;或者点击绿色箭头查看邻近地区的地图。


METAR-TAF: